Time;durP1;ratioP1;P1;durP2;ratioP2;P2;SDS_P1;SDS_P2;PMS_P1;PMS_P2;Temp;Humidity;BMP_temperature;BMP_pressure;BME280_temperature;BME280_humidity;BME280_pressure;Samples;Min_cycle;Max_cycle;Signal;HPM_P1;HPM_P2
2021/06/25 00:01:09;;;;;;;3.67;3.47;;;21.80;99.90;;;;;;5098318;28;20213;-69
2021/06/25 00:03:36;;;;;;;3.10;2.90;;;21.80;99.90;;;;;;5112016;28;20633;-70
2021/06/25 00:06:03;;;;;;;3.65;3.38;;;21.80;99.90;;;;;;5110181;28;20201;-70
2021/06/25 00:08:30;;;;;;;3.08;2.88;;;21.70;99.90;;;;;;5111932;28;20204;-70
2021/06/25 00:10:56;;;;;;;3.97;3.67;;;21.70;99.90;;;;;;5110407;28;20198;-70
2021/06/25 00:13:23;;;;;;;4.10;3.80;;;21.70;99.90;;;;;;5100911;28;20507;-70
2021/06/25 00:15:50;;;;;;;3.10;2.90;;;21.70;99.90;;;;;;5092477;28;20208;-69
2021/06/25 00:18:18;;;;;;;3.88;3.58;;;21.70;99.90;;;;;;5110074;28;20685;-70
2021/06/25 00:20:45;;;;;;;3.30;3.00;;;21.70;99.90;;;;;;5111479;28;20407;-70
2021/06/25 00:23:11;;;;;;;3.50;3.20;;;21.70;99.90;;;;;;5102340;28;20201;-70
2021/06/25 00:25:38;;;;;;;3.33;3.13;;;21.70;99.90;;;;;;5095262;28;20190;-69
2021/06/25 00:28:05;;;;;;;3.50;3.20;;;21.70;99.90;;;;;;5103181;28;20197;-69
2021/06/25 00:30:32;;;;;;;4.00;3.70;;;21.60;99.90;;;;;;5091145;28;20201;-70
2021/06/25 00:32:58;;;;;;;4.35;3.95;;;21.60;99.90;;;;;;5091263;28;20200;-70
2021/06/25 00:35:27;;;;;;;3.65;3.22;;;21.60;99.90;;;;;;5091145;28;20553;-70
2021/06/25 00:37:53;;;;;;;4.05;3.75;;;21.60;99.90;;;;;;5109174;28;20216;-70
2021/06/25 00:40:20;;;;;;;3.53;3.20;;;21.60;99.90;;;;;;5111539;28;20201;-69
2021/06/25 00:42:47;;;;;;;3.70;3.35;;;21.60;99.90;;;;;;5110072;28;20200;-70
2021/06/25 00:45:15;;;;;;;4.00;3.70;;;21.60;99.90;;;;;;5091212;28;20201;-70
2021/06/25 00:47:44;;;;;;;3.38;3.17;;;21.60;99.90;;;;;;5104643;28;20525;-70
2021/06/25 00:50:12;;;;;;;4.18;3.88;;;21.60;99.90;;;;;;5100261;28;20193;-70
2021/06/25 00:52:41;;;;;;;4.80;4.28;;;21.60;99.90;;;;;;5090776;28;20197;-70
2021/06/25 00:55:08;;;;;;;3.78;3.45;;;21.60;99.90;;;;;;5099838;28;20458;-70
2021/06/25 00:57:35;;;;;;;3.40;3.10;;;21.60;99.90;;;;;;5098041;28;20230;-70
2021/06/25 01:00:02;;;;;;;4.05;3.65;;;21.60;99.90;;;;;;5092055;28;20212;-70
2021/06/25 01:02:28;;;;;;;3.80;3.50;;;21.60;99.90;;;;;;5091672;28;20202;-70
2021/06/25 01:04:55;;;;;;;4.63;4.22;;;21.60;99.90;;;;;;5092616;28;20204;-69
2021/06/25 01:07:22;;;;;;;3.90;3.60;;;21.60;99.90;;;;;;5101020;28;20238;-70
2021/06/25 01:09:51;;;;;;;4.75;3.65;;;21.60;99.90;;;;;;5097553;28;20200;-70
2021/06/25 01:12:19;;;;;;;5.53;5.03;;;21.50;99.90;;;;;;5111200;28;20192;-70
2021/06/25 01:14:46;;;;;;;3.90;3.60;;;21.50;99.90;;;;;;5109950;28;20746;-69
2021/06/25 01:17:28;;;;;;;4.33;4.03;;;21.50;99.90;;;;;;5102008;28;20201;-69
2021/06/25 01:19:55;;;;;;;3.97;3.50;;;21.50;99.90;;;;;;5090443;28;20483;-69
2021/06/25 01:22:26;;;;;;;5.20;4.68;;;21.50;99.90;;;;;;5090205;28;20204;-69
2021/06/25 01:24:53;;;;;;;4.50;4.10;;;21.50;99.90;;;;;;5090775;28;20202;-69
2021/06/25 01:27:19;;;;;;;5.00;4.25;;;21.50;99.90;;;;;;5099028;28;20208;-69
2021/06/25 01:29:46;;;;;;;4.80;4.40;;;21.40;99.90;;;;;;5101224;28;20189;-69
2021/06/25 01:32:13;;;;;;;3.95;3.67;;;21.40;99.90;;;;;;5109405;28;20200;-69
2021/06/25 01:34:40;;;;;;;4.72;4.32;;;21.40;99.90;;;;;;5111000;28;20205;-69
2021/06/25 01:37:07;;;;;;;3.88;3.58;;;21.40;99.90;;;;;;5100442;28;20205;-69
2021/06/25 01:39:35;;;;;;;4.60;4.20;;;21.40;99.90;;;;;;5090588;28;20217;-70
2021/06/25 01:42:02;;;;;;;4.32;3.97;;;21.40;99.90;;;;;;5109178;28;20208;-69
2021/06/25 01:44:29;;;;;;;5.00;4.60;;;21.40;99.90;;;;;;5110868;28;20653;-69
2021/06/25 01:46:56;;;;;;;4.28;3.97;;;21.40;99.90;;;;;;5096812;28;20197;-70
2021/06/25 01:49:23;;;;;;;3.72;3.53;;;21.30;99.90;;;;;;5090652;28;20201;-69
2021/06/25 01:51:50;;;;;;;4.90;3.90;;;21.30;99.90;;;;;;5090602;28;20236;-69
2021/06/25 01:54:16;;;;;;;4.78;4.38;;;21.30;99.90;;;;;;5090149;28;20286;-69
2021/06/25 01:56:45;;;;;;;4.20;3.80;;;21.30;99.90;;;;;;5099921;28;20189;-69
2021/06/25 01:59:12;;;;;;;4.72;4.28;;;21.30;99.90;;;;;;5090855;28;20218;-69
2021/06/25 02:01:39;;;;;;;5.15;4.65;;;21.30;99.90;;;;;;5093957;28;20193;-69
2021/06/25 02:04:05;;;;;;;4.90;4.60;;;21.30;99.90;;;;;;5097961;28;20224;-71
2021/06/25 02:06:32;;;;;;;4.93;4.53;;;21.30;99.90;;;;;;5106409;28;20189;-70
2021/06/25 02:09:00;;;;;;;4.35;4.05;;;21.30;99.90;;;;;;5094470;28;20198;-70
2021/06/25 02:11:27;;;;;;;4.07;3.78;;;21.30;99.90;;;;;;5103826;28;20197;-70
2021/06/25 02:13:56;;;;;;;4.80;4.43;;;21.30;99.90;;;;;;5114420;28;20207;-70
2021/06/25 02:16:22;;;;;;;5.05;4.60;;;21.20;99.90;;;;;;5112556;28;20199;-70
2021/06/25 02:18:49;;;;;;;4.90;4.50;;;21.20;99.90;;;;;;5096326;28;20221;-70
2021/06/25 02:21:16;;;;;;;4.55;4.25;;;21.20;99.90;;;;;;5093880;28;20657;-71
2021/06/25 02:23:43;;;;;;;4.50;4.20;;;21.20;99.90;;;;;;5094078;28;20205;-70
2021/06/25 02:26:09;;;;;;;4.32;4.03;;;21.20;99.90;;;;;;5098096;28;20633;-70
2021/06/25 02:28:36;;;;;;;4.70;4.35;;;21.20;99.90;;;;;;5111273;28;20212;-70
2021/06/25 02:31:04;;;;;;;4.95;4.55;;;21.20;99.90;;;;;;5110554;28;20203;-71
2021/06/25 02:33:31;;;;;;;4.68;4.35;;;21.20;99.90;;;;;;5099946;28;20197;-71
2021/06/25 02:35:58;;;;;;;5.20;4.78;;;21.10;99.90;;;;;;5095898;28;20216;-71
2021/06/25 02:38:24;;;;;;;4.22;3.92;;;21.20;99.90;;;;;;5106563;28;20527;-71
2021/06/25 02:40:51;;;;;;;4.88;4.57;;;21.20;99.90;;;;;;5101758;28;20197;-70
2021/06/25 02:43:18;;;;;;;4.65;4.35;;;21.20;99.90;;;;;;5113365;28;20211;-70
2021/06/25 02:45:45;;;;;;;5.28;4.88;;;21.20;99.90;;;;;;5097819;28;20197;-71
2021/06/25 02:48:13;;;;;;;5.45;4.80;;;21.10;99.90;;;;;;5113568;28;20200;-70
2021/06/25 02:50:39;;;;;;;4.82;4.40;;;21.10;99.90;;;;;;5111957;28;20200;-71
2021/06/25 02:53:06;;;;;;;6.45;5.22;;;21.10;99.90;;;;;;5095339;28;20200;-70
2021/06/25 02:55:33;;;;;;;5.28;4.88;;;21.10;99.90;;;;;;5103100;28;20204;-70
2021/06/25 02:58:00;;;;;;;5.65;4.80;;;21.00;99.90;;;;;;5094929;28;20229;-70
2021/06/25 03:00:26;;;;;;;5.43;5.00;;;21.00;99.90;;;;;;5092636;28;20252;-70
2021/06/25 03:02:53;;;;;;;5.03;4.60;;;21.00;99.90;;;;;;5093057;28;20201;-70
2021/06/25 03:05:22;;;;;;;4.93;4.55;;;21.00;99.90;;;;;;5104731;28;20204;-70
2021/06/25 03:07:49;;;;;;;4.60;4.20;;;21.00;99.90;;;;;;5095441;28;20197;-70
2021/06/25 03:10:15;;;;;;;5.28;4.88;;;21.00;99.90;;;;;;5092858;28;20202;-70
2021/06/25 03:12:42;;;;;;;5.15;4.72;;;20.90;99.90;;;;;;5091603;28;20205;-69
2021/06/25 03:15:10;;;;;;;5.53;5.05;;;20.90;99.90;;;;;;5093716;28;20203;-70
2021/06/25 03:17:37;;;;;;;5.20;4.80;;;20.90;99.90;;;;;;5107844;28;20205;-69
2021/06/25 03:20:06;;;;;;;8.60;5.55;;;20.90;99.90;;;;;;5103578;28;20601;-69
2021/06/25 03:22:34;;;;;;;5.85;5.45;;;20.90;99.90;;;;;;5093036;28;20545;-70
2021/06/25 03:25:01;;;;;;;4.82;4.53;;;20.90;99.90;;;;;;5092650;28;20314;-69
2021/06/25 03:27:28;;;;;;;5.18;4.78;;;20.80;99.90;;;;;;5092108;28;20205;-70
2021/06/25 03:29:54;;;;;;;5.65;5.15;;;20.80;99.90;;;;;;5092700;28;20546;-69
2021/06/25 03:32:21;;;;;;;6.00;5.50;;;20.80;99.90;;;;;;5092756;28;20205;-70
2021/06/25 03:34:48;;;;;;;5.25;4.85;;;20.80;99.90;;;;;;5092270;28;20193;-69
2021/06/25 03:37:15;;;;;;;6.05;5.55;;;20.80;99.90;;;;;;5109152;28;20208;-69
2021/06/25 03:39:43;;;;;;;5.10;4.70;;;20.80;99.90;;;;;;5110401;28;20204;-70
2021/06/25 03:42:10;;;;;;;5.97;5.20;;;20.80;99.90;;;;;;5111434;28;20200;-69
2021/06/25 03:44:36;;;;;;;6.10;5.63;;;20.80;99.90;;;;;;5100267;28;20211;-70
2021/06/25 03:47:03;;;;;;;5.40;5.00;;;20.80;99.90;;;;;;5106277;28;20203;-69
2021/06/25 03:49:31;;;;;;;5.22;4.72;;;20.70;99.90;;;;;;5095009;28;20193;-69
2021/06/25 03:51:58;;;;;;;5.45;5.05;;;20.80;99.90;;;;;;5112011;28;20287;-70
2021/06/25 03:54:24;;;;;;;4.88;4.43;;;20.70;99.90;;;;;;5107369;28;20288;-70
2021/06/25 03:56:53;;;;;;;5.30;4.90;;;20.70;99.90;;;;;;5091297;28;20201;-70
2021/06/25 03:59:19;;;;;;;5.57;5.10;;;20.70;99.90;;;;;;5106166;28;20552;-70
2021/06/25 04:01:46;;;;;;;6.03;5.30;;;20.70;99.90;;;;;;5091726;28;20684;-70
2021/06/25 04:04:13;;;;;;;5.30;4.90;;;20.70;99.90;;;;;;5091614;28;20213;-70
2021/06/25 04:06:40;;;;;;;5.68;5.28;;;20.70;99.90;;;;;;5091681;28;20194;-70
2021/06/25 04:09:07;;;;;;;5.68;5.22;;;20.70;99.90;;;;;;5091507;28;20542;-70
2021/06/25 04:11:34;;;;;;;5.80;5.30;;;20.70;99.90;;;;;;5110184;28;20200;-69
2021/06/25 04:14:02;;;;;;;5.95;5.45;;;20.70;99.90;;;;;;5111836;28;20200;-70
2021/06/25 04:16:29;;;;;;;5.45;5.05;;;20.70;99.90;;;;;;5111988;28;20196;-70
2021/06/25 04:18:56;;;;;;;5.30;4.80;;;20.70;99.90;;;;;;5093402;28;20224;-70
2021/06/25 04:21:23;;;;;;;5.53;5.13;;;20.70;99.90;;;;;;5099616;28;20192;-70
2021/06/25 04:23:50;;;;;;;5.65;5.25;;;20.70;99.90;;;;;;5110450;28;20655;-70
2021/06/25 04:26:17;;;;;;;6.60;5.90;;;20.70;99.90;;;;;;5111347;28;20196;-70
2021/06/25 04:28:44;;;;;;;6.00;5.50;;;20.70;99.90;;;;;;5092911;28;20189;-70
2021/06/25 04:31:12;;;;;;;6.40;5.90;;;20.60;99.90;;;;;;5092600;28;20208;-70
2021/06/25 04:33:39;;;;;;;5.63;5.22;;;20.60;99.90;;;;;;5091100;28;20679;-70
2021/06/25 04:36:06;;;;;;;5.80;5.30;;;20.60;99.90;;;;;;5090951;28;20224;-70
2021/06/25 04:38:33;;;;;;;4.80;4.50;;;20.60;99.90;;;;;;5092394;28;20550;-70
2021/06/25 04:41:00;;;;;;;5.60;5.20;;;20.60;99.90;;;;;;5104325;28;20216;-70
2021/06/25 04:43:27;;;;;;;5.68;5.28;;;20.60;99.90;;;;;;5107689;28;20197;-70
2021/06/25 04:45:53;;;;;;;4.72;4.38;;;20.60;99.90;;;;;;5097393;28;20200;-70
2021/06/25 04:48:22;;;;;;;5.35;4.85;;;20.60;99.90;;;;;;5110613;28;20192;-70
2021/06/25 04:50:49;;;;;;;5.80;5.30;;;20.60;99.90;;;;;;5109511;28;20884;-70
2021/06/25 04:53:15;;;;;;;5.22;4.80;;;20.60;99.90;;;;;;5111246;28;20203;-69
2021/06/25 04:55:44;;;;;;;6.40;5.80;;;20.60;99.90;;;;;;5090857;28;20197;-70
2021/06/25 04:58:13;;;;;;;5.63;5.13;;;20.60;99.90;;;;;;5091296;28;20228;-70
2021/06/25 05:00:41;;;;;;;4.65;4.25;;;20.60;99.90;;;;;;5100122;28;20218;-69
2021/06/25 05:03:08;;;;;;;5.25;4.80;;;20.60;99.90;;;;;;5103654;28;20206;-70
2021/06/25 05:05:38;;;;;;;5.45;4.95;;;20.60;99.90;;;;;;5091159;28;20208;-70
2021/06/25 05:08:06;;;;;;;7.63;4.00;;;20.60;99.90;;;;;;5093374;28;20197;-70
2021/06/25 05:10:33;;;;;;;4.57;4.18;;;20.60;99.90;;;;;;5102815;28;20193;-70
2021/06/25 05:13:00;;;;;;;5.03;4.72;;;20.60;99.90;;;;;;5091360;28;20216;-70
2021/06/25 05:15:27;;;;;;;6.88;6.25;;;20.60;99.90;;;;;;5092358;28;20650;-70
2021/06/25 05:17:53;;;;;;;5.10;4.55;;;20.60;99.90;;;;;;5102150;28;20609;-70
2021/06/25 05:20:21;;;;;;;5.43;5.03;;;20.50;99.90;;;;;;5097279;28;20234;-70
2021/06/25 05:22:49;;;;;;;6.43;4.73;;;20.50;99.90;;;;;;5110939;28;20193;-70
2021/06/25 05:25:16;;;;;;;6.15;5.20;;;20.50;99.90;;;;;;5098375;28;20470;-70
2021/06/25 05:27:43;;;;;;;8.35;7.50;;;20.50;99.90;;;;;;5091116;28;20232;-70
2021/06/25 05:30:11;;;;;;;6.82;6.22;;;20.50;99.90;;;;;;5092152;28;20194;-70
2021/06/25 05:32:38;;;;;;;5.57;5.07;;;20.60;99.90;;;;;;5090776;28;20654;-70
2021/06/25 05:35:06;;;;;;;6.32;5.82;;;20.70;99.90;;;;;;5091631;28;20245;-70
2021/06/25 05:37:32;;;;;;;5.03;4.63;;;20.80;99.90;;;;;;5095786;28;20201;-70
2021/06/25 05:40:00;;;;;;;5.93;5.07;;;20.90;99.90;;;;;;5096912;28;20217;-70
2021/06/25 05:42:27;;;;;;;5.25;4.55;;;21.00;99.90;;;;;;5114630;28;20185;-69
2021/06/25 05:44:54;;;;;;;4.15;3.85;;;21.10;99.90;;;;;;5114241;28;20199;-70
2021/06/25 05:47:20;;;;;;;5.18;4.68;;;21.20;99.90;;;;;;5094522;28;20650;-70
2021/06/25 05:49:47;;;;;;;4.95;4.55;;;21.30;99.90;;;;;;5096145;28;20198;-70
2021/06/25 05:52:14;;;;;;;4.38;3.97;;;21.50;99.90;;;;;;5114620;28;20544;-70
2021/06/25 05:54:41;;;;;;;5.47;4.40;;;21.50;99.90;;;;;;5097108;28;20194;-71
2021/06/25 05:57:09;;;;;;;4.25;3.95;;;21.70;99.90;;;;;;5107437;28;20259;-70
2021/06/25 05:59:36;;;;;;;6.68;5.30;;;21.80;99.90;;;;;;5097433;28;20296;-70
2021/06/25 06:02:03;;;;;;;4.18;3.88;;;21.90;99.90;;;;;;5098915;28;20185;-71
2021/06/25 06:04:30;;;;;;;6.30;4.90;;;22.00;99.90;;;;;;5093973;28;20197;-70
2021/06/25 06:06:56;;;;;;;4.63;4.22;;;22.10;99.90;;;;;;5093772;28;20218;-70
2021/06/25 06:09:23;;;;;;;4.82;4.38;;;22.20;99.90;;;;;;5112928;28;20197;-70
2021/06/25 06:11:50;;;;;;;4.03;3.50;;;22.30;99.90;;;;;;5109342;28;20685;-70
2021/06/25 06:14:18;;;;;;;4.43;4.03;;;22.40;99.90;;;;;;5094263;28;20201;-70
2021/06/25 06:16:45;;;;;;;4.70;4.07;;;22.50;99.90;;;;;;5093854;28;20443;-70
2021/06/25 06:19:15;;;;;;;4.65;4.25;;;22.60;99.90;;;;;;5093566;28;20951;-70
2021/06/25 06:32:46;;;;;;;3.93;3.63;;;23.10;99.90;;;;;;5106085;28;21013;-70
2021/06/25 06:35:13;;;;;;;5.33;4.83;;;23.20;99.90;;;;;;5093799;28;20446;-70
2021/06/25 06:37:40;;;;;;;4.87;4.47;;;23.20;99.90;;;;;;5107157;28;20446;-70
2021/06/25 06:40:08;;;;;;;4.70;4.20;;;23.30;99.90;;;;;;5100238;28;20475;-70
2021/06/25 06:42:35;;;;;;;7.00;3.97;;;23.30;99.90;;;;;;5112043;28;20457;-71
2021/06/25 06:45:03;;;;;;;4.37;3.97;;;23.40;99.90;;;;;;5100687;28;20459;-70
2021/06/25 06:47:30;;;;;;;4.13;3.73;;;23.40;99.90;;;;;;5105190;28;20524;-70
2021/06/25 06:49:57;;;;;;;5.20;4.67;;;23.50;99.90;;;;;;5099090;28;20461;-70
2021/06/25 06:52:24;;;;;;;4.97;4.57;;;23.60;99.90;;;;;;5106347;28;20486;-70
2021/06/25 06:54:50;;;;;;;5.53;4.57;;;23.70;99.70;;;;;;5098876;28;20446;-70
2021/06/25 06:57:18;;;;;;;6.00;4.50;;;23.70;99.30;;;;;;5093825;28;20485;-69
2021/06/25 06:59:44;;;;;;;5.30;4.80;;;23.80;99.20;;;;;;5092596;28;20981;-72
2021/06/25 07:02:12;;;;;;;5.37;4.83;;;23.80;98.90;;;;;;5111429;28;20451;-70
2021/06/25 07:04:39;;;;;;;4.30;3.90;;;23.90;98.70;;;;;;5107114;28;20466;-70
2021/06/25 07:07:06;;;;;;;4.90;4.50;;;24.00;98.60;;;;;;5093394;28;20443;-70
2021/06/25 07:09:32;;;;;;;4.83;4.43;;;24.00;98.30;;;;;;5113104;28;20446;-69
2021/06/25 07:11:59;;;;;;;5.75;4.90;;;24.10;98.40;;;;;;5102935;28;20474;-70
2021/06/25 07:14:26;;;;;;;5.30;4.80;;;24.10;98.10;;;;;;5107119;28;20192;-70
2021/06/25 07:16:53;;;;;;;5.87;5.27;;;24.10;98.00;;;;;;5100788;28;20446;-70
2021/06/25 07:19:21;;;;;;;6.00;5.50;;;24.10;97.80;;;;;;5092693;28;20451;-70
2021/06/25 07:21:48;;;;;;;5.70;5.20;;;24.20;97.70;;;;;;5097636;28;20506;-70
2021/06/25 07:24:14;;;;;;;6.20;5.70;;;24.10;97.80;;;;;;5106154;28;20439;-70
2021/06/25 07:26:41;;;;;;;5.77;5.20;;;24.10;97.70;;;;;;5103599;28;20457;-70
2021/06/25 07:29:09;;;;;;;5.43;4.93;;;24.20;97.50;;;;;;5113103;28;20926;-69
2021/06/25 07:31:36;;;;;;;7.27;5.20;;;24.20;97.30;;;;;;5109774;28;20645;-70
2021/06/25 07:34:03;;;;;;;4.67;4.17;;;24.30;96.50;;;;;;5094132;28;21108;-70
2021/06/25 07:36:31;;;;;;;8.77;5.03;;;24.20;96.00;;;;;;5093405;28;20435;-69
2021/06/25 07:38:58;;;;;;;5.40;4.80;;;24.20;95.90;;;;;;5106544;28;20446;-70
2021/06/25 07:41:25;;;;;;;7.30;4.10;;;24.20;95.60;;;;;;5100760;28;20471;-70
2021/06/25 07:43:51;;;;;;;4.33;3.93;;;24.20;95.30;;;;;;5095346;28;20444;-69
2021/06/25 07:46:18;;;;;;;4.37;4.07;;;24.10;95.40;;;;;;5110741;28;20981;-70
2021/06/25 07:48:45;;;;;;;3.83;3.53;;;24.10;95.10;;;;;;5106487;28;20459;-70
2021/06/25 07:51:11;;;;;;;3.77;3.47;;;24.10;95.20;;;;;;5091715;28;20439;-69
2021/06/25 07:53:39;;;;;;;3.37;2.87;;;24.20;94.50;;;;;;5098295;28;21136;-70
2021/06/25 07:56:06;;;;;;;4.53;3.77;;;24.20;94.60;;;;;;5101869;28;20448;-69
2021/06/25 07:58:33;;;;;;;3.50;3.20;;;24.20;94.30;;;;;;5091076;28;20962;-70
2021/06/25 08:01:00;;;;;;;3.07;2.70;;;24.30;93.20;;;;;;5101637;28;20511;-69
2021/06/25 08:03:26;;;;;;;4.77;3.50;;;24.30;92.80;;;;;;5110606;28;20488;-69
2021/06/25 08:05:54;;;;;;;2.70;2.50;;;24.40;92.80;;;;;;5105021;28;20440;-70
2021/06/25 08:08:21;;;;;;;2.63;2.43;;;24.40;92.70;;;;;;5091191;28;21148;-69
2021/06/25 08:10:49;;;;;;;3.72;3.15;;;24.40;92.80;;;;;;5105229;28;20957;-70
2021/06/25 08:13:16;;;;;;;4.43;2.60;;;24.40;92.80;;;;;;5104333;28;20209;-70
2021/06/25 08:15:48;;;;;;;3.33;3.03;;;24.50;92.60;;;;;;5104890;28;20434;-70
2021/06/25 08:18:15;;;;;;;2.70;2.50;;;24.50;92.00;;;;;;5110563;28;20250;-70
2021/06/25 08:20:42;;;;;;;4.23;3.53;;;24.40;92.00;;;;;;5105507;28;20209;-70
2021/06/25 08:23:09;;;;;;;3.53;3.08;;;24.40;91.60;;;;;;5090943;28;20439;-70
2021/06/25 08:25:35;;;;;;;2.70;2.50;;;24.40;91.50;;;;;;5091081;28;20677;-70
2021/06/25 08:28:04;;;;;;;3.33;3.03;;;24.40;91.60;;;;;;5091391;28;20435;-69
2021/06/25 08:30:31;;;;;;;2.60;2.40;;;24.50;91.20;;;;;;5091746;28;20194;-69
2021/06/25 08:32:57;;;;;;;4.50;2.27;;;24.50;90.70;;;;;;5096969;28;20442;-70
2021/06/25 08:35:25;;;;;;;3.60;2.80;;;24.60;90.50;;;;;;5108390;28;20450;-69
2021/06/25 08:37:53;;;;;;;2.73;2.37;;;24.60;90.30;;;;;;5099905;28;20443;-70
2021/06/25 08:40:20;;;;;;;2.40;2.20;;;24.60;90.20;;;;;;5107476;28;20477;-70
2021/06/25 08:42:48;;;;;;;3.23;2.47;;;24.70;90.00;;;;;;5095584;28;20446;-69
2021/06/25 08:45:17;;;;;;;2.60;2.20;;;24.70;89.60;;;;;;5108814;28;20443;-69
2021/06/25 08:47:45;;;;;;;2.50;2.30;;;24.70;90.10;;;;;;5091613;28;20442;-70
2021/06/25 08:50:13;;;;;;;4.50;2.10;;;24.70;88.70;;;;;;5094306;28;20462;-70
2021/06/25 08:52:43;;;;;;;2.55;2.10;;;24.70;89.70;;;;;;5093595;28;20531;-69
2021/06/25 08:55:11;;;;;;;4.43;2.95;;;24.70;90.20;;;;;;5106047;28;20201;-69
2021/06/25 08:57:38;;;;;;;2.73;2.53;;;24.70;89.50;;;;;;5108454;28;20235;-69
2021/06/25 09:00:06;;;;;;;3.03;2.43;;;24.80;89.80;;;;;;5111367;28;20457;-69
2021/06/25 09:02:36;;;;;;;5.70;4.20;;;24.80;90.00;;;;;;5111338;28;20438;-69
2021/06/25 09:05:04;;;;;;;3.38;2.30;;;24.80;85.40;;;;;;5108723;28;20469;-70
2021/06/25 09:07:42;;;;;;;3.38;3.00;;;24.90;87.20;;;;;;5107721;28;20212;-69
2021/06/25 09:10:09;;;;;;;4.20;2.10;;;24.90;86.90;;;;;;5108986;28;20276;-71
2021/06/25 09:12:37;;;;;;;5.60;2.80;;;25.00;87.00;;;;;;5114142;27;20438;-70
2021/06/25 09:15:08;;;;;;;2.53;2.33;;;25.00;86.30;;;;;;5111844;28;20455;-69
2021/06/25 09:17:53;;;;;;;2.77;2.40;;;25.00;87.30;;;;;;5095631;28;20866;-70
2021/06/25 09:20:30;;;;;;;2.23;2.03;;;24.90;85.50;;;;;;5098124;28;20479;-69
2021/06/25 09:22:57;;;;;;;2.67;2.33;;;24.90;86.50;;;;;;5104435;28;20486;-70
2021/06/25 09:25:23;;;;;;;2.50;2.30;;;25.00;87.30;;;;;;5098685;28;20467;-69
2021/06/25 09:27:55;;;;;;;4.73;2.70;;;25.00;86.30;;;;;;5115898;28;20441;-71
2021/06/25 09:30:23;;;;;;;2.43;2.20;;;25.00;86.30;;;;;;5114054;28;20584;-70
2021/06/25 09:32:51;;;;;;;2.80;2.53;;;25.00;85.10;;;;;;5109052;28;20466;-70
2021/06/25 09:35:20;;;;;;;3.23;2.33;;;25.10;85.40;;;;;;5103267;28;20896;-70
2021/06/25 09:37:48;;;;;;;4.00;2.73;;;25.00;85.80;;;;;;5101147;28;20463;-71
2021/06/25 09:40:16;;;;;;;2.50;2.30;;;25.00;85.80;;;;;;5114001;28;20442;-70
2021/06/25 09:42:45;;;;;;;3.43;3.03;;;25.00;86.90;;;;;;5114042;28;20892;-70
2021/06/25 09:45:14;;;;;;;4.00;2.77;;;25.00;87.00;;;;;;5115232;28;20506;-70
2021/06/25 09:47:42;;;;;;;3.70;2.77;;;25.00;86.70;;;;;;5105781;27;20454;-70
2021/06/25 09:50:15;;;;;;;3.13;2.83;;;25.00;86.90;;;;;;5095511;28;20451;-70
2021/06/25 09:52:53;;;;;;;3.57;3.27;;;25.00;87.00;;;;;;5114566;28;20514;-71
2021/06/25 09:55:21;;;;;;;4.00;2.97;;;25.00;87.10;;;;;;5111238;28;20438;-69
2021/06/25 09:58:23;;;;;;;4.03;3.50;;;25.00;87.50;;;;;;5107437;27;20502;-68
2021/06/25 10:03:38;;;;;;;3.60;3.20;;;25.10;87.30;;;;;;5095623;28;20462;-69
2021/06/25 10:06:08;;;;;;;2.20;2.00;;;25.10;87.60;;;;;;5109821;28;20448;-69
2021/06/25 10:08:35;;;;;;;3.67;3.37;;;25.00;87.80;;;;;;5113868;28;20645;-69
2021/06/25 10:11:04;;;;;;;3.97;3.40;;;25.00;88.10;;;;;;5106758;28;20440;-69
2021/06/25 10:13:33;;;;;;;3.47;3.17;;;25.10;88.10;;;;;;5095295;28;20439;-69
2021/06/25 10:16:00;;;;;;;3.05;2.85;;;25.10;88.60;;;;;;5095054;28;20504;-69
2021/06/25 10:18:30;;;;;;;4.20;3.30;;;25.10;88.40;;;;;;5095370;28;20213;-69
2021/06/25 10:20:57;;;;;;;3.50;3.20;;;25.10;88.50;;;;;;5094715;28;20468;-69
2021/06/25 10:23:29;;;;;;;3.27;2.97;;;25.10;89.00;;;;;;5102152;28;20476;-69
2021/06/25 10:25:57;;;;;;;4.00;3.70;;;25.10;89.20;;;;;;5114936;28;20776;-69
2021/06/25 10:28:25;;;;;;;4.70;4.30;;;25.10;88.30;;;;;;5115163;28;20443;-70
2021/06/25 10:30:52;;;;;;;4.40;3.20;;;25.10;88.90;;;;;;5112588;27;20515;-70
2021/06/25 10:33:19;;;;;;;4.00;3.70;;;25.20;89.10;;;;;;5094241;28;20439;-70
2021/06/25 10:35:49;;;;;;;4.30;3.80;;;25.20;89.70;;;;;;5111762;28;20450;-69
2021/06/25 10:38:18;;;;;;;5.53;4.40;;;25.10;89.50;;;;;;5114196;28;20435;-70
2021/06/25 10:40:56;;;;;;;8.40;4.47;;;25.20;89.70;;;;;;5108243;27;20462;-69
2021/06/25 10:43:44;;;;;;;3.43;3.13;;;25.10;89.30;;;;;;5112007;28;20438;-68
2021/06/25 10:46:30;;;;;;;6.90;4.73;;;25.10;89.50;;;;;;5112511;28;20435;-70
2021/06/25 10:48:58;;;;;;;4.77;4.00;;;25.20;89.60;;;;;;5097091;28;20450;-69
2021/06/25 10:51:26;;;;;;;4.70;4.07;;;25.20;89.70;;;;;;5094922;28;20452;-68
2021/06/25 10:54:17;;;;;;;5.40;4.93;;;25.20;89.80;;;;;;5108838;28;20756;-69
2021/06/25 10:57:08;;;;;;;4.73;4.33;;;25.10;89.70;;;;;;5093720;28;20469;-70
2021/06/25 10:59:45;;;;;;;5.27;4.63;;;25.20;89.80;;;;;;5093144;28;21097;-71
2021/06/25 11:02:13;;;;;;;4.67;4.07;;;25.10;90.00;;;;;;5109518;28;20531;-72
2021/06/25 11:04:42;;;;;;;8.33;4.83;;;25.10;90.20;;;;;;5111825;28;20784;-72
2021/06/25 11:07:15;;;;;;;5.93;5.43;;;25.10;90.20;;;;;;5104178;28;20487;-71
2021/06/25 11:09:59;;;;;;;6.35;5.75;;;25.10;90.10;;;;;;5093487;28;20439;-71
2021/06/25 11:12:31;;;;;;;6.38;5.75;;;25.10;90.00;;;;;;5093052;28;20560;-73
2021/06/25 11:15:29;;;;;;;7.20;6.50;;;25.10;90.40;;;;;;5110301;28;20204;-71
2021/06/25 11:17:56;;;;;;;5.60;5.10;;;25.10;90.30;;;;;;5105471;28;20443;-71
2021/06/25 11:20:26;;;;;;;6.20;5.65;;;25.10;90.50;;;;;;5110160;28;20431;-71
2021/06/25 11:22:58;;;;;;;7.40;6.60;;;25.10;90.60;;;;;;5106325;28;20239;-71
2021/06/25 11:25:46;;;;;;;6.50;5.87;;;25.10;90.50;;;;;;5099103;28;20451;-69
2021/06/25 11:28:33;;;;;;;5.90;5.40;;;25.10;90.60;;;;;;5107266;28;20488;-69
2021/06/25 11:31:03;;;;;;;6.20;5.60;;;25.10;90.80;;;;;;5098093;28;20437;-69
2021/06/25 11:33:32;;;;;;;7.20;6.60;;;25.10;90.80;;;;;;5097310;28;20654;-69
2021/06/25 11:36:21;;;;;;;8.00;7.25;;;25.10;90.50;;;;;;5106647;28;20439;-69
2021/06/25 11:39:10;;;;;;;6.30;4.90;;;25.10;90.50;;;;;;5111293;28;20637;-69
2021/06/25 11:41:39;;;;;;;6.37;5.77;;;25.10;90.80;;;;;;5098462;28;20557;-70
2021/06/25 11:44:12;;;;;;;5.83;5.30;;;25.10;90.80;;;;;;5093650;28;20432;-70
2021/06/25 11:46:41;;;;;;;8.57;7.60;;;25.10;90.90;;;;;;5092755;28;20884;-70
2021/06/25 11:49:08;;;;;;;5.47;5.07;;;25.20;90.70;;;;;;5094099;28;20460;-69
2021/06/25 11:51:41;;;;;;;6.33;5.50;;;25.20;90.90;;;;;;5100812;28;20455;-70
2021/06/25 11:54:09;;;;;;;7.27;6.67;;;25.20;91.00;;;;;;5092108;28;20447;-70
2021/06/25 11:56:37;;;;;;;6.97;6.37;;;25.20;90.70;;;;;;5092593;28;20843;-70
2021/06/25 11:59:05;;;;;;;6.87;6.20;;;25.20;91.00;;;;;;5094516;28;20477;-69
2021/06/25 12:01:47;;;;;;;6.80;6.20;;;25.30;91.00;;;;;;5109863;28;20546;-69
2021/06/25 12:04:14;;;;;;;7.40;6.80;;;25.20;90.70;;;;;;5104701;28;20435;-70
2021/06/25 12:06:48;;;;;;;6.90;6.30;;;25.20;90.50;;;;;;5111210;28;20458;-71
2021/06/25 12:09:15;;;;;;;6.30;5.80;;;25.20;90.80;;;;;;5111088;28;20908;-71
2021/06/25 12:11:41;;;;;;;7.27;6.67;;;25.20;90.80;;;;;;5112220;28;20637;-71
2021/06/25 12:14:10;;;;;;;8.07;7.37;;;25.30;90.90;;;;;;5108055;28;20470;-70
2021/06/25 12:16:42;;;;;;;7.20;6.60;;;25.30;90.80;;;;;;5102237;28;20539;-70
2021/06/25 12:19:10;;;;;;;8.43;7.57;;;25.20;90.70;;;;;;5094340;28;20482;-70
2021/06/25 12:21:38;;;;;;;10.17;7.40;;;25.20;90.80;;;;;;5095763;28;20478;-70
2021/06/25 12:24:05;;;;;;;7.60;7.00;;;25.30;90.80;;;;;;5101190;28;20479;-70
2021/06/25 12:26:33;;;;;;;8.07;7.00;;;25.20;90.80;;;;;;5112718;28;20453;-70
2021/06/25 12:29:01;;;;;;;7.53;6.90;;;25.20;90.90;;;;;;5096329;28;20463;-71
2021/06/25 12:31:31;;;;;;;6.23;5.73;;;25.20;91.10;;;;;;5095822;28;20494;-70
2021/06/25 12:34:07;;;;;;;8.57;7.87;;;25.20;91.20;;;;;;5099820;28;20482;-70
2021/06/25 12:36:35;;;;;;;7.90;7.10;;;25.20;91.00;;;;;;5091675;28;20508;-69
2021/06/25 12:39:05;;;;;;;9.10;7.30;;;25.30;91.00;;;;;;5090941;28;20448;-69
2021/06/25 12:41:32;;;;;;;9.70;8.13;;;25.30;91.10;;;;;;5095662;28;20595;-69
2021/06/25 12:43:59;;;;;;;7.77;7.07;;;25.30;91.00;;;;;;5091476;28;20804;-71
2021/06/25 12:46:26;;;;;;;7.57;6.83;;;25.30;90.90;;;;;;5093401;28;20436;-71
2021/06/25 12:48:54;;;;;;;8.70;8.00;;;25.30;90.90;;;;;;5100855;28;20443;-71
2021/06/25 12:51:25;;;;;;;7.85;7.25;;;25.30;90.80;;;;;;5107396;28;20459;-71
2021/06/25 12:53:55;;;;;;;8.77;7.97;;;25.30;90.70;;;;;;5108710;28;20227;-71
2021/06/25 12:56:24;;;;;;;7.90;7.10;;;25.30;90.70;;;;;;5108441;28;20488;-69
2021/06/25 12:58:57;;;;;;;8.05;7.35;;;25.40;90.90;;;;;;5103964;28;21057;-69
2021/06/25 13:01:24;;;;;;;8.17;7.47;;;25.40;90.80;;;;;;5096274;28;20182;-70
2021/06/25 13:03:51;;;;;;;8.17;7.37;;;25.40;90.70;;;;;;5098910;28;20461;-69
2021/06/25 13:06:32;;;;;;;8.60;7.90;;;25.40;90.70;;;;;;5098385;28;20454;-69
2021/06/25 13:09:01;;;;;;;8.13;7.50;;;25.40;90.80;;;;;;5109383;28;20453;-69